Time;durP1;ratioP1;P1;durP2;ratioP2;P2;SDS_P1;SDS_P2;PMS_P1;PMS_P2;Temp;Humidity;BMP_temperature;BMP_pressure;BME280_temperature;BME280_humidity;BME280_pressure;Samples;Min_cycle;Max_cycle;Signal;HPM_P1;HPM_P2
2023/08/14 00:01:17;;;;;;;8.93;4.85;;;;;;;;;;5076749;28;20052;-82
2023/08/14 00:03:44;;;;;;;6.43;4.90;;;;;;;;;;5080545;28;20495;-82
2023/08/14 00:06:12;;;;;;;8.07;4.32;;;;;;;;;;5079335;28;20452;-81
2023/08/14 00:08:39;;;;;;;5.60;4.68;;;;;;;;;;5081576;28;20049;-81
2023/08/14 00:11:06;;;;;;;10.25;5.05;;;;;;;;;;5080456;28;20052;-81
2023/08/14 00:13:48;;;;;;;4.82;4.28;;;;;;;;;;5080158;28;20057;-81
2023/08/14 00:16:16;;;;;;;10.23;5.32;;;;;;;;;;5078496;28;20106;-81
2023/08/14 00:18:44;;;;;;;7.22;4.65;;;;;;;;;;5079208;28;20068;-81
2023/08/14 00:21:11;;;;;;;7.70;5.47;;;;;;;;;;5078179;28;20110;-81
2023/08/14 00:23:39;;;;;;;5.53;5.03;;;;;;;;;;5078878;28;20048;-81
2023/08/14 00:26:06;;;;;;;9.90;4.60;;;;;;;;;;5078772;28;20056;-81
2023/08/14 00:28:33;;;;;;;6.13;5.47;;;;;;;;;;5077339;28;20499;-81
2023/08/14 00:31:01;;;;;;;11.73;5.55;;;;;;;;;;5079368;28;20044;-81
2023/08/14 00:33:28;;;;;;;9.02;4.80;;;;;;;;;;5079275;28;20418;-81
2023/08/14 00:35:55;;;;;;;6.05;4.50;;;;;;;;;;5076609;28;20045;-80
2023/08/14 00:38:22;;;;;;;7.40;4.32;;;;;;;;;;5078411;28;20090;-81
2023/08/14 00:40:52;;;;;;;6.90;4.80;;;;;;;;;;5076849;28;20503;-81
2023/08/14 00:43:23;;;;;;;9.40;4.78;;;;;;;;;;5076871;28;20041;-80
2023/08/14 00:45:52;;;;;;;5.32;4.85;;;;;;;;;;5074561;28;20490;-81
2023/08/14 00:48:19;;;;;;;11.23;5.07;;;;;;;;;;5074169;28;20045;-81
2023/08/14 00:50:46;;;;;;;4.78;4.30;;;;;;;;;;5074340;28;20095;-81
2023/08/14 00:53:14;;;;;;;12.02;5.35;;;;;;;;;;5074006;28;20125;-81
2023/08/14 00:55:42;;;;;;;7.47;4.93;;;;;;;;;;5074050;28;20105;-81
2023/08/14 00:58:09;;;;;;;6.95;4.88;;;;;;;;;;5074169;28;20052;-82
2023/08/14 01:00:37;;;;;;;7.50;4.80;;;;;;;;;;5075151;28;20049;-81
2023/08/14 01:03:04;;;;;;;6.20;4.90;;;;;;;;;;5075315;28;20183;-81
2023/08/14 01:05:32;;;;;;;10.90;5.30;;;;;;;;;;5073888;28;20056;-81
2023/08/14 01:07:59;;;;;;;8.57;4.68;;;;;;;;;;5074940;28;20044;-80
2023/08/14 01:10:31;;;;;;;8.02;4.70;;;;;;;;;;5074095;28;20048;-81
2023/08/14 01:13:04;;;;;;;5.13;4.63;;;;;;;;;;5073329;28;20491;-81
2023/08/14 01:15:37;;;;;;;6.90;5.20;;;;;;;;;;5073821;28;20049;-81
2023/08/14 01:18:04;;;;;;;10.80;5.43;;;;;;;;;;5074091;28;20057;-81
2023/08/14 01:20:33;;;;;;;7.60;4.95;;;;;;;;;;5075136;28;20048;-81
2023/08/14 01:23:06;;;;;;;6.43;4.53;;;;;;;;;;5076121;28;20052;-81
2023/08/14 01:25:34;;;;;;;7.35;4.38;;;;;;;;;;5075981;28;20418;-81
2023/08/14 01:28:02;;;;;;;6.03;4.72;;;;;;;;;;5076339;28;20063;-81
2023/08/14 01:30:29;;;;;;;5.65;4.80;;;;;;;;;;5076285;28;20053;-80
2023/08/14 01:32:56;;;;;;;7.55;4.75;;;;;;;;;;5077629;28;20151;-80
2023/08/14 01:35:25;;;;;;;7.82;5.03;;;;;;;;;;5081339;28;20076;-82
2023/08/14 01:37:56;;;;;;;10.43;5.53;;;;;;;;;;5079598;28;20044;-81
2023/08/14 01:40:42;;;;;;;7.10;5.00;;;;;;;;;;5079703;28;20062;-81
2023/08/14 01:43:11;;;;;;;7.40;5.10;;;;;;;;;;5079286;28;20049;-81
2023/08/14 01:45:39;;;;;;;9.52;5.43;;;;;;;;;;5078823;28;20094;-82
2023/08/14 01:48:10;;;;;;;11.77;5.15;;;;;;;;;;5077144;28;20094;-81
2023/08/14 01:50:39;;;;;;;8.18;5.57;;;;;;;;;;5077293;28;20045;-81
2023/08/14 01:53:06;;;;;;;11.65;6.05;;;;;;;;;;5076614;28;20052;-81
2023/08/14 01:55:34;;;;;;;12.82;5.32;;;;;;;;;;5078271;28;20052;-81
2023/08/14 01:58:01;;;;;;;7.80;4.80;;;;;;;;;;5077268;28;20060;-81
2023/08/14 02:00:31;;;;;;;5.95;4.95;;;;;;;;;;5077324;28;20100;-81
2023/08/14 02:03:00;;;;;;;8.38;5.65;;;;;;;;;;5076053;28;20098;-80
2023/08/14 02:05:27;;;;;;;7.95;5.10;;;;;;;;;;5076157;28;20045;-81
2023/08/14 02:07:54;;;;;;;8.52;5.63;;;;;;;;;;5078396;28;20056;-82
2023/08/14 02:10:22;;;;;;;8.13;4.75;;;;;;;;;;5078521;28;20060;-81
2023/08/14 02:12:49;;;;;;;7.93;5.25;;;;;;;;;;5076000;28;20051;-80
2023/08/14 02:15:16;;;;;;;12.05;5.40;;;;;;;;;;5076605;28;20048;-81
2023/08/14 02:17:43;;;;;;;6.10;5.20;;;;;;;;;;5076597;28;20052;-81
2023/08/14 02:20:11;;;;;;;11.15;6.10;;;;;;;;;;5077928;28;20041;-81
2023/08/14 02:22:38;;;;;;;6.25;4.85;;;;;;;;;;5074390;28;20098;-81
2023/08/14 02:25:06;;;;;;;12.88;5.28;;;;;;;;;;5073011;28;20570;-81
2023/08/14 02:27:33;;;;;;;9.05;5.28;;;;;;;;;;5071954;28;20127;-80
2023/08/14 02:30:00;;;;;;;9.32;5.10;;;;;;;;;;5072300;28;20105;-80
2023/08/14 02:32:27;;;;;;;9.20;4.88;;;;;;;;;;5072379;28;20072;-81
2023/08/14 02:34:58;;;;;;;5.55;4.85;;;;;;;;;;5072660;28;20052;-81
2023/08/14 02:37:25;;;;;;;7.47;5.03;;;;;;;;;;5076206;28;20426;-80
2023/08/14 02:39:52;;;;;;;9.15;5.18;;;;;;;;;;5076431;28;20074;-81
2023/08/14 02:42:20;;;;;;;8.73;5.05;;;;;;;;;;5078528;28;20110;-82
2023/08/14 02:44:48;;;;;;;8.63;5.28;;;;;;;;;;5076620;28;20132;-81
2023/08/14 02:47:15;;;;;;;10.10;5.55;;;;;;;;;;5077206;28;20502;-80
2023/08/14 02:49:42;;;;;;;6.63;5.40;;;;;;;;;;5078754;28;20048;-81
2023/08/14 02:52:09;;;;;;;7.75;5.45;;;;;;;;;;5078422;28;20049;-82
2023/08/14 02:54:37;;;;;;;7.68;5.22;;;;;;;;;;5077739;28;20429;-81
2023/08/14 02:57:04;;;;;;;9.00;4.70;;;;;;;;;;5077320;28;20056;-80
2023/08/14 02:59:33;;;;;;;5.32;4.85;;;;;;;;;;5077701;28;20041;-81
2023/08/14 03:02:00;;;;;;;14.00;5.88;;;;;;;;;;5077273;28;20396;-81
2023/08/14 03:04:29;;;;;;;8.25;5.22;;;;;;;;;;5077844;28;20049;-81
2023/08/14 03:06:57;;;;;;;13.77;6.22;;;;;;;;;;5078275;28;20494;-81
2023/08/14 03:09:24;;;;;;;13.35;5.57;;;;;;;;;;5077609;28;20044;-81
2023/08/14 03:11:51;;;;;;;14.85;5.78;;;;;;;;;;5077190;28;20544;-82
2023/08/14 03:14:18;;;;;;;12.07;5.38;;;;;;;;;;5083753;28;20045;-82
2023/08/14 03:16:45;;;;;;;8.43;5.90;;;;;;;;;;5077775;28;20063;-81
2023/08/14 03:19:13;;;;;;;7.60;5.78;;;;;;;;;;5080515;28;20098;-81
2023/08/14 03:21:41;;;;;;;14.90;7.60;;;;;;;;;;5087616;28;20104;-82
2023/08/14 03:24:09;;;;;;;12.73;7.10;;;;;;;;;;5094291;28;20070;-82
2023/08/14 03:26:36;;;;;;;8.85;5.70;;;;;;;;;;5094996;28;20110;-81
2023/08/14 03:29:03;;;;;;;12.02;5.70;;;;;;;;;;5093274;28;20053;-81
2023/08/14 03:31:31;;;;;;;10.65;5.90;;;;;;;;;;5076056;28;20517;-81
2023/08/14 03:33:59;;;;;;;10.52;5.47;;;;;;;;;;5075392;28;20060;-81
2023/08/14 03:36:26;;;;;;;6.63;5.15;;;;;;;;;;5081878;28;20033;-81
2023/08/14 03:38:54;;;;;;;13.23;5.72;;;;;;;;;;5087749;28;20080;-81
2023/08/14 03:41:21;;;;;;;9.15;5.05;;;;;;;;;;5080641;28;20049;-82
2023/08/14 03:43:48;;;;;;;9.23;5.00;;;;;;;;;;5077150;28;20098;-81
2023/08/14 03:46:15;;;;;;;6.32;5.43;;;;;;;;;;5076366;28;20049;-81
2023/08/14 03:48:43;;;;;;;11.80;6.13;;;;;;;;;;5076614;28;20041;-81
2023/08/14 03:51:10;;;;;;;13.00;6.28;;;;;;;;;;5075957;28;20057;-81
2023/08/14 03:53:37;;;;;;;10.45;5.80;;;;;;;;;;5077228;28;20040;-82
2023/08/14 03:56:05;;;;;;;5.88;5.28;;;;;;;;;;5075352;28;20106;-81
2023/08/14 03:58:32;;;;;;;10.15;5.38;;;;;;;;;;5075692;28;20040;-81
2023/08/14 04:00:59;;;;;;;6.50;4.95;;;;;;;;;;5073713;28;20044;-81
2023/08/14 04:03:26;;;;;;;11.63;5.00;;;;;;;;;;5075022;28;20045;-81
2023/08/14 04:05:57;;;;;;;10.57;6.07;;;;;;;;;;5073923;28;20044;-81
2023/08/14 04:08:24;;;;;;;8.25;5.20;;;;;;;;;;5074410;28;20205;-81
2023/08/14 04:10:57;;;;;;;8.48;4.97;;;;;;;;;;5073293;28;20053;-81
2023/08/14 04:13:24;;;;;;;12.65;6.03;;;;;;;;;;5073432;28;20052;-81
2023/08/14 04:15:59;;;;;;;8.65;5.85;;;;;;;;;;5074527;28;20465;-81
2023/08/14 04:18:30;;;;;;;8.95;5.35;;;;;;;;;;5074083;28;20087;-81
2023/08/14 04:20:58;;;;;;;7.57;5.55;;;;;;;;;;5073115;28;20090;-81
2023/08/14 04:23:25;;;;;;;17.70;6.15;;;;;;;;;;5072174;28;20044;-80
2023/08/14 04:25:53;;;;;;;8.60;5.50;;;;;;;;;;5072437;28;20049;-80
2023/08/14 04:28:20;;;;;;;10.70;7.45;;;;;;;;;;5072525;28;20052;-81
2023/08/14 04:30:47;;;;;;;13.02;9.75;;;;;;;;;;5072062;28;20050;-81
2023/08/14 04:33:14;;;;;;;15.63;8.52;;;;;;;;;;5072936;28;20052;-81
2023/08/14 04:35:42;;;;;;;10.95;7.95;;;;;;;;;;5073198;28;20049;-80
2023/08/14 04:38:10;;;;;;;10.30;7.55;;;;;;;;;;5072922;28;20122;-81
2023/08/14 04:40:37;;;;;;;9.77;5.95;;;;;;;;;;5074238;28;20098;-81
2023/08/14 04:43:05;;;;;;;10.73;6.82;;;;;;;;;;5074223;28;20040;-81
2023/08/14 04:45:32;;;;;;;13.23;7.65;;;;;;;;;;5072592;28;20049;-81
2023/08/14 04:47:59;;;;;;;7.45;5.90;;;;;;;;;;5079465;28;20071;-81
2023/08/14 04:50:26;;;;;;;10.25;6.00;;;;;;;;;;5082625;28;20044;-82
2023/08/14 04:52:54;;;;;;;8.80;5.63;;;;;;;;;;5082633;28;20048;-82
2023/08/14 04:55:23;;;;;;;11.30;6.13;;;;;;;;;;5083139;28;20048;-81
2023/08/14 04:57:51;;;;;;;9.93;6.30;;;;;;;;;;5081567;28;20052;-81
2023/08/14 05:00:18;;;;;;;14.20;5.80;;;;;;;;;;5079414;28;20049;-81
2023/08/14 05:02:45;;;;;;;6.80;5.95;;;;;;;;;;5081413;28;20053;-82
2023/08/14 05:05:13;;;;;;;8.05;5.32;;;;;;;;;;5079365;28;20098;-82
2023/08/14 05:07:40;;;;;;;9.57;5.57;;;;;;;;;;5078821;28;20067;-81
2023/08/14 05:10:07;;;;;;;6.50;5.22;;;;;;;;;;5080950;28;20060;-81
2023/08/14 05:12:35;;;;;;;7.43;5.30;;;;;;;;;;5080007;28;20059;-81
2023/08/14 05:15:02;;;;;;;6.60;5.35;;;;;;;;;;5080206;28;20514;-81
2023/08/14 05:17:29;;;;;;;11.80;5.28;;;;;;;;;;5079066;28;20430;-81
2023/08/14 05:19:57;;;;;;;6.72;5.07;;;;;;;;;;5078026;28;20114;-81
2023/08/14 05:22:24;;;;;;;10.82;5.57;;;;;;;;;;5079693;28;20048;-81
2023/08/14 05:24:51;;;;;;;11.25;4.88;;;;;;;;;;5079018;28;20040;-81
2023/08/14 05:27:18;;;;;;;7.15;5.18;;;;;;;;;;5078695;28;20483;-81
2023/08/14 05:29:47;;;;;;;5.47;5.07;;;;;;;;;;5078597;28;20041;-81
2023/08/14 05:32:14;;;;;;;7.55;4.47;;;;;;;;;;5078186;28;20461;-81
2023/08/14 05:34:42;;;;;;;11.07;4.38;;;;;;;;;;5085002;28;20094;-81
2023/08/14 05:37:09;;;;;;;10.30;4.50;;;;;;;;;;5083946;28;20049;-82
2023/08/14 05:39:37;;;;;;;11.20;4.10;;;;;;;;;;5075334;28;20458;-81
2023/08/14 05:42:04;;;;;;;6.88;3.80;;;;;;;;;;5074539;28;20052;-81
2023/08/14 05:44:31;;;;;;;12.45;3.65;;;;;;;;;;5077167;28;20045;-81
2023/08/14 05:46:58;;;;;;;5.35;3.05;;;;;;;;;;5079386;28;20484;-81
2023/08/14 05:49:26;;;;;;;6.97;2.85;;;;;;;;;;5079739;28;20409;-81
2023/08/14 05:51:53;;;;;;;3.00;2.70;;;;;;;;;;5078264;28;20056;-81
2023/08/14 05:54:20;;;;;;;5.43;2.58;;;;;;;;;;5079850;28;20064;-81
2023/08/14 05:56:49;;;;;;;5.22;2.97;;;;;;;;;;5079660;28;20102;-82
2023/08/14 05:59:16;;;;;;;5.72;3.08;;;;;;;;;;5077379;28;20114;-81
2023/08/14 06:01:45;;;;;;;9.70;3.05;;;;;;;;;;5078408;28;20098;-82
2023/08/14 06:04:13;;;;;;;10.63;2.70;;;;;;;;;;5079125;28;20475;-81
2023/08/14 06:06:40;;;;;;;5.80;2.78;;;;;;;;;;5076947;28;20507;-82
2023/08/14 06:09:07;;;;;;;7.72;3.17;;;;;;;;;;5077919;28;20051;-81
2023/08/14 06:11:35;;;;;;;2.40;2.20;;;;;;;;;;5076258;28;20090;-81
2023/08/14 06:14:03;;;;;;;6.85;2.60;;;;;;;;;;5077331;28;20060;-81
2023/08/14 06:16:30;;;;;;;25.10;4.07;;;;;;;;;;5077152;28;20048;-81
2023/08/14 06:18:57;;;;;;;48.50;6.18;;;;;;;;;;5079488;28;20056;-82
2023/08/14 06:21:24;;;;;;;12.60;3.20;;;;;;;;;;5077374;28;20059;-81
2023/08/14 06:23:52;;;;;;;14.02;3.20;;;;;;;;;;5075735;28;20553;-81
2023/08/14 06:26:19;;;;;;;13.55;3.47;;;;;;;;;;5076812;28;20166;-82
2023/08/14 06:28:46;;;;;;;15.98;3.83;;;;;;;;;;5083176;28;20048;-82
2023/08/14 06:31:13;;;;;;;25.30;4.20;;;;;;;;;;5091891;28;20052;-82
2023/08/14 06:33:41;;;;;;;15.57;3.47;;;;;;;;;;5089228;28;20109;-82
2023/08/14 06:36:09;;;;;;;13.30;3.22;;;;;;;;;;5079390;28;20054;-82
2023/08/14 06:38:36;;;;;;;15.65;3.78;;;;;;;;;;5079382;28;20045;-82
2023/08/14 06:41:03;;;;;;;20.02;4.57;;;;;;;;;;5079354;28;20060;-82
2023/08/14 06:43:31;;;;;;;17.20;3.72;;;;;;;;;;5079360;28;20084;-82
2023/08/14 06:45:59;;;;;;;10.32;4.30;;;;;;;;;;5080484;28;20044;-82
2023/08/14 06:48:26;;;;;;;19.95;4.10;;;;;;;;;;5079316;28;20045;-82
2023/08/14 06:50:55;;;;;;;26.50;4.30;;;;;;;;;;5081175;28;20489;-82
2023/08/14 06:53:22;;;;;;;12.85;4.47;;;;;;;;;;5077564;28;20052;-82
2023/08/14 06:55:50;;;;;;;14.98;4.43;;;;;;;;;;5079121;28;20044;-82
2023/08/14 06:58:17;;;;;;;13.50;3.97;;;;;;;;;;5078688;28;20052;-82
2023/08/14 07:00:47;;;;;;;6.53;3.20;;;;;;;;;;5077689;28;20044;-82
2023/08/14 07:03:14;;;;;;;5.82;2.97;;;;;;;;;;5076243;28;20711;-81
2023/08/14 07:05:41;;;;;;;3.60;2.40;;;;;;;;;;5077641;28;20049;-81
2023/08/14 07:08:09;;;;;;;2.90;2.33;;;;;;;;;;5078674;28;20052;-82
2023/08/14 07:10:36;;;;;;;3.80;2.60;;;;;;;;;;5077875;28;20129;-81
2023/08/14 07:13:03;;;;;;;3.05;2.20;;;;;;;;;;5076861;28;20118;-82
2023/08/14 07:15:30;;;;;;;3.85;2.53;;;;;;;;;;5076819;28;20098;-81
2023/08/14 07:17:57;;;;;;;2.15;1.95;;;;;;;;;;5072072;28;20464;-81
2023/08/14 07:20:26;;;;;;;3.35;2.50;;;;;;;;;;5072435;28;20048;-81
2023/08/14 07:22:54;;;;;;;3.25;2.67;;;;;;;;;;5073223;28;20521;-81
2023/08/14 07:25:21;;;;;;;4.85;3.00;;;;;;;;;;5073688;28;20131;-81
2023/08/14 07:27:49;;;;;;;3.50;2.80;;;;;;;;;;5072958;28;20568;-81
2023/08/14 07:30:17;;;;;;;3.88;2.25;;;;;;;;;;5072384;28;20108;-81
2023/08/14 07:32:45;;;;;;;2.78;2.58;;;;;;;;;;5073051;28;20052;-81
2023/08/14 07:35:12;;;;;;;3.25;2.63;;;;;;;;;;5072317;28;20048;-81
2023/08/14 07:37:39;;;;;;;4.50;2.83;;;;;;;;;;5074045;28;20048;-81
2023/08/14 07:40:07;;;;;;;3.72;2.55;;;;;;;;;;5073052;28;20453;-82
2023/08/14 07:42:34;;;;;;;12.73;2.85;;;;;;;;;;5074219;28;20045;-81
2023/08/14 07:45:01;;;;;;;3.15;2.15;;;;;;;;;;5074503;28;20045;-81
2023/08/14 07:47:29;;;;;;;3.85;2.25;;;;;;;;;;5074970;28;20076;-82
2023/08/14 07:49:56;;;;;;;4.50;2.33;;;;;;;;;;5074704;28;20055;-81
2023/08/14 07:52:24;;;;;;;4.03;2.42;;;;;;;;;;5075030;28;20557;-81
2023/08/14 07:54:51;;;;;;;7.03;2.55;;;;;;;;;;5076554;28;20052;-82
2023/08/14 07:57:18;;;;;;;3.78;1.90;;;;;;;;;;5076675;28;20102;-82
2023/08/14 07:59:46;;;;;;;6.05;2.60;;;;;;;;;;5076582;28;20057;-82
2023/08/14 08:02:13;;;;;;;6.07;2.90;;;;;;;;;;5076610;28;20075;-82
2023/08/14 08:04:40;;;;;;;5.72;2.50;;;;;;;;;;5076676;28;20045;-82
2023/08/14 08:07:08;;;;;;;7.57;2.95;;;;;;;;;;5078737;28;20052;-83
2023/08/14 08:09:37;;;;;;;5.78;2.75;;;;;;;;;;5084572;28;20044;-82
2023/08/14 08:12:04;;;;;;;8.15;3.33;;;;;;;;;;5083217;28;20051;-82
2023/08/14 08:14:33;;;;;;;8.30;2.97;;;;;;;;;;5079806;28;20044;-82
2023/08/14 08:17:00;;;;;;;4.60;2.55;;;;;;;;;;5080169;28;20048;-82
2023/08/14 08:19:27;;;;;;;4.72;2.60;;;;;;;;;;5079576;28;20075;-82
2023/08/14 08:21:54;;;;;;;7.53;2.95;;;;;;;;;;5079649;28;20442;-82
2023/08/14 08:24:22;;;;;;;8.50;3.15;;;;;;;;;;5083490;28;20048;-82
2023/08/14 08:26:49;;;;;;;4.10;2.50;;;;;;;;;;5084218;28;20052;-82
2023/08/14 08:29:16;;;;;;;14.18;4.05;;;;;;;;;;5080507;28;20507;-82
2023/08/14 08:31:43;;;;;;;3.97;2.00;;;;;;;;;;5082270;28;20098;-82
2023/08/14 08:34:11;;;;;;;2.97;1.52;;;;;;;;;;5082806;28;20126;-82
2023/08/14 08:36:38;;;;;;;2.30;1.45;;;;;;;;;;5083178;28;20060;-83
2023/08/14 08:39:05;;;;;;;4.07;1.60;;;;;;;;;;5082299;28;20049;-83
2023/08/14 08:41:34;;;;;;;6.50;2.17;;;;;;;;;;5080202;28;20044;-81
2023/08/14 08:44:10;;;;;;;8.43;4.03;;;;;;;;;;5080497;28;20106;-81
2023/08/14 08:46:38;;;;;;;17.55;3.28;;;;;;;;;;5080967;28;20052;-83
2023/08/14 08:49:06;;;;;;;10.27;4.20;;;;;;;;;;5081519;28;20044;-82
2023/08/14 08:51:37;;;;;;;6.38;2.78;;;;;;;;;;5083158;28;20048;-84
2023/08/14 08:54:05;;;;;;;4.22;2.33;;;;;;;;;;5081129;28;20052;-81
2023/08/14 08:56:33;;;;;;;5.80;2.03;;;;;;;;;;5080608;28;20052;-82
2023/08/14 08:59:00;;;;;;;5.82;2.58;;;;;;;;;;5082063;28;20469;-83
2023/08/14 09:01:29;;;;;;;2.70;1.75;;;;;;;;;;5084107;28;20041;-82
2023/08/14 09:03:58;;;;;;;3.00;1.80;;;;;;;;;;5085451;28;20056;-81
2023/08/14 09:06:25;;;;;;;5.47;2.05;;;;;;;;;;5084466;28;20410;-82
2023/08/14 09:08:53;;;;;;;1.80;1.70;;;;;;;;;;5082065;28;20044;-82
2023/08/14 09:11:21;;;;;;;1.83;1.58;;;;;;;;;;5082492;28;20589;-82
2023/08/14 09:13:48;;;;;;;1.63;1.50;;;;;;;;;;5083803;28;20114;-83
2023/08/14 09:16:16;;;;;;;3.30;1.42;;;;;;;;;;5085148;28;20114;-82
2023/08/14 09:18:44;;;;;;;2.65;1.33;;;;;;;;;;5084632;28;20056;-83
2023/08/14 09:21:12;;;;;;;1.70;1.40;;;;;;;;;;5084780;28;20045;-82
2023/08/14 09:23:39;;;;;;;3.58;1.70;;;;;;;;;;5083712;28;20045;-82
2023/08/14 09:26:07;;;;;;;2.25;1.45;;;;;;;;;;5085055;28;20044;-82
2023/08/14 09:28:35;;;;;;;1.40;1.30;;;;;;;;;;5085359;28;20513;-84
2023/08/14 09:31:10;;;;;;;1.83;1.55;;;;;;;;;;5077601;28;20506;-82
2023/08/14 09:33:38;;;;;;;6.07;1.75;;;;;;;;;;5075364;28;20509;-81
2023/08/14 09:36:05;;;;;;;1.58;1.30;;;;;;;;;;5073197;28;20056;-82
2023/08/14 09:38:33;;;;;;;1.67;1.50;;;;;;;;;;5073846;28;20060;-83
2023/08/14 09:41:01;;;;;;;4.57;1.80;;;;;;;;;;5074161;28;20074;-81
2023/08/14 09:43:29;;;;;;;2.42;1.80;;;;;;;;;;5075089;28;20056;-81
2023/08/14 09:45:58;;;;;;;2.63;1.38;;;;;;;;;;5075673;28;20469;-83
2023/08/14 09:48:44;;;;;;;172.50;15.20;;;;;;;;;;5083799;28;20055;-83
2023/08/14 09:51:13;;;;;;;8.35;2.38;;;;;;;;;;5082737;28;20097;-82
2023/08/14 09:53:48;;;;;;;4.60;2.00;;;;;;;;;;5081537;28;20123;-82
2023/08/14 09:56:16;;;;;;;1.90;1.60;;;;;;;;;;5081341;28;20053;-83
2023/08/14 09:58:43;;;;;;;2.03;1.55;;;;;;;;;;5080104;28;20048;-82
2023/08/14 10:01:15;;;;;;;1.70;1.60;;;;;;;;;;5081185;28;20048;-82
2023/08/14 10:03:43;;;;;;;3.00;1.80;;;;;;;;;;5079603;28;20056;-82
2023/08/14 10:06:13;;;;;;;1.92;1.67;;;;;;;;;;5080513;28;20052;-82
2023/08/14 10:08:43;;;;;;;2.75;1.60;;;;;;;;;;5077954;28;20048;-82
2023/08/14 10:11:12;;;;;;;1.95;1.60;;;;;;;;;;5079322;28;20045;-82
2023/08/14 10:13:47;;;;;;;2.28;1.70;;;;;;;;;;5077707;28;20059;-82
2023/08/14 10:16:17;;;;;;;6.70;1.70;;;;;;;;;;5077292;28;20054;-82
2023/08/14 10:18:45;;;;;;;4.40;1.73;;;;;;;;;;5079493;28;20045;-83
2023/08/14 10:21:15;;;;;;;4.63;1.80;;;;;;;;;;5075971;28;20074;-83
2023/08/14 10:23:43;;;;;;;3.65;1.80;;;;;;;;;;5075064;28;20465;-82
2023/08/14 10:26:11;;;;;;;1.85;1.73;;;;;;;;;;5076196;28;20052;-83
2023/08/14 10:28:38;;;;;;;4.10;1.60;;;;;;;;;;5075699;28;20056;-82
2023/08/14 10:31:07;;;;;;;1.52;1.42;;;;;;;;;;5076584;28;20040;-82
2023/08/14 10:33:34;;;;;;;1.77;1.60;;;;;;;;;;5072553;28;20048;-82
2023/08/14 10:36:02;;;;;;;4.22;1.70;;;;;;;;;;5072566;28;20482;-81
2023/08/14 10:38:40;;;;;;;2.78;1.88;;;;;;;;;;5072546;28;20052;-81
2023/08/14 10:41:08;;;;;;;1.83;1.70;;;;;;;;;;5072708;28;20117;-81
2023/08/14 10:43:35;;;;;;;1.83;1.42;;;;;;;;;;5072265;28;20556;-81
2023/08/14 10:46:10;;;;;;;2.95;2.17;;;;;;;;;;5079267;28;20052;-82
2023/08/14 10:48:38;;;;;;;2.05;1.73;;;;;;;;;;5085648;28;20059;-82
2023/08/14 10:51:09;;;;;;;3.03;1.98;;;;;;;;;;5084741;28;20056;-82
2023/08/14 10:53:40;;;;;;;2.00;1.80;;;;;;;;;;5083749;28;20041;-83
2023/08/14 10:56:10;;;;;;;4.45;2.30;;;;;;;;;;5081209;28;20040;-82
2023/08/14 10:58:38;;;;;;;6.00;3.22;;;;;;;;;;5081188;28;20048;-82
2023/08/14 11:01:07;;;;;;;6.60;3.00;;;;;;;;;;5080398;28;20052;-84
2023/08/14 11:03:35;;;;;;;3.25;2.28;;;;;;;;;;5080360;28;20537;-82
2023/08/14 11:06:02;;;;;;;5.10;2.40;;;;;;;;;;5081209;28;20485;-84
2023/08/14 11:08:30;;;;;;;4.93;2.25;;;;;;;;;;5082466;28;20525;-84
2023/08/14 11:11:00;;;;;;;2.38;2.17;;;;;;;;;;5081149;28;20498;-82
2023/08/14 11:13:28;;;;;;;5.10;2.50;;;;;;;;;;5080054;28;20087;-82
2023/08/14 11:15:58;;;;;;;9.98;2.25;;;;;;;;;;5078138;28;20411;-83
2023/08/14 11:18:27;;;;;;;3.08;1.95;;;;;;;;;;5077893;28;20125;-82
2023/08/14 11:21:02;;;;;;;3.88;1.83;;;;;;;;;;5079854;28;20049;-82
2023/08/14 11:23:49;;;;;;;2.00;1.80;;;;;;;;;;5078227;28;20503;-82
2023/08/14 11:26:17;;;;;;;3.63;2.30;;;;;;;;;;5080995;28;20071;-83
2023/08/14 11:28:44;;;;;;;2.17;2.03;;;;;;;;;;5082951;28;20053;-83
2023/08/14 11:31:13;;;;;;;4.88;1.80;;;;;;;;;;5081992;28;20177;-83
2023/08/14 11:33:43;;;;;;;4.43;2.40;;;;;;;;;;5081870;28;20044;-83
2023/08/14 11:36:11;;;;;;;3.33;2.30;;;;;;;;;;5079692;28;20048;-82
2023/08/14 11:38:38;;;;;;;2.88;2.15;;;;;;;;;;5080385;28;20048;-82
2023/08/14 11:41:05;;;;;;;3.80;2.13;;;;;;;;;;5080770;28;20511;-83
2023/08/14 11:43:36;;;;;;;4.38;2.33;;;;;;;;;;5078528;28;20052;-82
2023/08/14 11:46:06;;;;;;;2.28;2.15;;;;;;;;;;5079607;28;20426;-83
2023/08/14 11:48:33;;;;;;;3.10;2.10;;;;;;;;;;5077671;28;20522;-82
2023/08/14 11:51:01;;;;;;;3.17;2.42;;;;;;;;;;5079397;28;20053;-81
2023/08/14 11:53:28;;;;;;;5.22;2.20;;;;;;;;;;5077488;28;20044;-82
2023/08/14 11:55:55;;;;;;;3.90;2.00;;;;;;;;;;5079140;28;20529;-82
2023/08/14 11:58:23;;;;;;;6.05;2.50;;;;;;;;;;5078967;28;20044;-81
2023/08/14 12:00:51;;;;;;;4.93;2.15;;;;;;;;;;5080623;28;20054;-82
2023/08/14 12:03:18;;;;;;;3.85;2.15;;;;;;;;;;5080400;28;20064;-82
2023/08/14 12:05:46;;;;;;;4.32;2.15;;;;;;;;;;5080446;28;20056;-82
2023/08/14 12:08:14;;;;;;;4.57;2.58;;;;;;;;;;5081344;28;20491;-82
2023/08/14 12:10:41;;;;;;;4.28;2.75;;;;;;;;;;5075820;28;20053;-81
2023/08/14 12:13:08;;;;;;;2.60;2.08;;;;;;;;;;5076179;28;20137;-80
2023/08/14 12:15:38;;;;;;;4.00;2.17;;;;;;;;;;5075621;28;20045;-82
2023/08/14 12:18:11;;;;;;;3.22;2.08;;;;;;;;;;5075287;28;20048;-81
2023/08/14 12:20:40;;;;;;;2.13;2.00;;;;;;;;;;5075360;28;20049;-82
2023/08/14 12:23:12;;;;;;;4.63;2.22;;;;;;;;;;5078856;28;20052;-81
2023/08/14 12:25:39;;;;;;;2.22;2.00;;;;;;;;;;5077096;28;20083;-81
2023/08/14 12:28:07;;;;;;;2.65;2.00;;;;;;;;;;5074662;28;20108;-83
2023/08/14 12:30:34;;;;;;;6.05;2.20;;;;;;;;;;5076082;28;20098;-82
2023/08/14 12:33:01;;;;;;;1.95;1.80;;;;;;;;;;5077737;28;20063;-81
2023/08/14 12:35:28;;;;;;;3.63;2.15;;;;;;;;;;5077378;28;20041;-81
2023/08/14 12:37:56;;;;;;;5.03;1.92;;;;;;;;;;5077707;28;20465;-81
2023/08/14 12:40:23;;;;;;;3.22;1.55;;;;;;;;;;5077992;28;20056;-83
2023/08/14 12:42:53;;;;;;;1.70;1.60;;;;;;;;;;5077045;28;20472;-81
2023/08/14 12:45:21;;;;;;;2.22;1.30;;;;;;;;;;5077717;28;20056;-81
2023/08/14 12:47:48;;;;;;;4.30;1.75;;;;;;;;;;5077546;28;20106;-81
2023/08/14 12:50:15;;;;;;;2.45;1.90;;;;;;;;;;5079269;28;20091;-83
2023/08/14 12:52:42;;;;;;;3.03;2.05;;;;;;;;;;5077647;28;20097;-81
2023/08/14 12:55:14;;;;;;;4.90;1.70;;;;;;;;;;5078250;28;20078;-81
2023/08/14 12:57:45;;;;;;;1.55;1.40;;;;;;;;;;5077123;28;20040;-82
2023/08/14 13:00:15;;;;;;;4.38;1.42;;;;;;;;;;5077719;28;20562;-82
2023/08/14 13:02:42;;;;;;;3.08;1.52;;;;;;;;;;5079316;28;20060;-82
2023/08/14 13:05:09;;;;;;;4.88;1.75;;;;;;;;;;5078359;28;20054;-82
2023/08/14 13:07:37;;;;;;;1.50;1.40;;;;;;;;;;5084058;28;20135;-82
2023/08/14 13:10:06;;;;;;;6.68;1.83;;;;;;;;;;5082244;28;20044;-82
2023/08/14 13:12:33;;;;;;;2.33;1.35;;;;;;;;;;5083364;28;20098;-81
2023/08/14 13:15:00;;;;;;;4.30;1.65;;;;;;;;;;5083254;28;20053;-81
2023/08/14 13:17:28;;;;;;;2.03;1.30;;;;;;;;;;5082720;28;20044;-83
2023/08/14 13:19:55;;;;;;;1.42;1.15;;;;;;;;;;5082845;28;20047;-82
2023/08/14 13:22:22;;;;;;;2.25;1.45;;;;;;;;;;5080638;28;20495;-81
2023/08/14 13:24:49;;;;;;;2.95;1.25;;;;;;;;;;5079280;28;20485;-81
2023/08/14 13:27:17;;;;;;;1.40;1.23;;;;;;;;;;5079362;28;20049;-82
2023/08/14 13:29:44;;;;;;;4.57;1.48;;;;;;;;;;5078144;28;20049;-82
2023/08/14 13:32:11;;;;;;;5.13;1.60;;;;;;;;;;5077498;28;20079;-82
2023/08/14 13:34:38;;;;;;;2.28;1.20;;;;;;;;;;5079234;28;20048;-82
2023/08/14 13:37:06;;;;;;;1.25;1.10;;;;;;;;;;5077070;28;20049;-82
2023/08/14 13:39:34;;;;;;;3.33;1.70;;;;;;;;;;5078226;28;20044;-81
2023/08/14 13:42:01;;;;;;;1.73;1.52;;;;;;;;;;5076266;28;20079;-81
2023/08/14 13:44:28;;;;;;;2.38;1.38;;;;;;;;;;5076376;28;20044;-81
2023/08/14 13:46:55;;;;;;;9.98;1.25;;;;;;;;;;5076559;28;20063;-81
2023/08/14 13:49:22;;;;;;;3.63;1.40;;;;;;;;;;5075729;28;20044;-82
2023/08/14 13:51:50;;;;;;;4.85;4.45;;;;;;;;;;5073936;28;20052;-82
2023/08/14 13:54:17;;;;;;;6.80;4.95;;;;;;;;;;5073554;28;20095;-82
2023/08/14 13:56:44;;;;;;;7.65;6.30;;;;;;;;;;5073886;28;20048;-82
2023/08/14 13:59:11;;;;;;;3.00;1.92;;;;;;;;;;5075108;28;20059;-81
2023/08/14 14:01:39;;;;;;;2.85;2.65;;;;;;;;;;5074165;28;20384;-81
2023/08/14 14:04:06;;;;;;;3.08;2.78;;;;;;;;;;5074808;28;20537;-81
2023/08/14 14:06:34;;;;;;;3.20;3.00;;;;;;;;;;5075874;28;20126;-81
2023/08/14 14:09:02;;;;;;;1.92;1.50;;;;;;;;;;5074681;28;20052;-82
2023/08/14 14:11:29;;;;;;;5.43;3.30;;;;;;;;;;5078604;28;20082;-84
2023/08/14 14:13:56;;;;;;;4.72;2.90;;;;;;;;;;5078059;28;20044;-81
2023/08/14 14:16:25;;;;;;;19.13;13.50;;;;;;;;;;5079895;28;20047;-82
2023/08/14 14:18:52;;;;;;;2.25;2.08;;;;;;;;;;5078269;28;20524;-82
2023/08/14 14:21:19;;;;;;;4.82;3.88;;;;;;;;;;5077585;28;20133;-80
2023/08/14 14:23:47;;;;;;;1.50;1.20;;;;;;;;;;5079373;28;20048;-82
2023/08/14 14:26:14;;;;;;;3.53;3.22;;;;;;;;;;5079916;28;20109;-82
2023/08/14 14:28:41;;;;;;;3.33;1.92;;;;;;;;;;5077845;28;20056;-83
2023/08/14 14:31:09;;;;;;;2.30;2.20;;;;;;;;;;5077832;28;20056;-82
2023/08/14 14:33:36;;;;;;;4.45;2.05;;;;;;;;;;5077683;28;20064;-82
2023/08/14 14:36:03;;;;;;;4.22;1.40;;;;;;;;;;5077033;28;20495;-82
2023/08/14 14:38:30;;;;;;;2.80;1.40;;;;;;;;;;5077806;28;20045;-83
2023/08/14 14:40:58;;;;;;;4.18;1.27;;;;;;;;;;5077498;28;20067;-82
2023/08/14 14:43:25;;;;;;;5.00;2.00;;;;;;;;;;5078108;28;20048;-83
2023/08/14 14:45:52;;;;;;;3.00;2.15;;;;;;;;;;5078831;28;20102;-82